Ridgeville, South Carolina
Current Conditions -  °F | °C
As of 1:35 PM on Monday 26 Jan 2015 (Local Time) from KDYB Reporting Station
Overcast Overcast  
Wind Chill: 54°   Ceiling: 4700
Heat Index: 54°   Visibility: 10mi
Dew Point: 41°   Wind: 10mph
Humidity: 62%   Direction: 270°W
Pressure: 29.66"   Gusts: 23mph
Location:  33.1°N, 80.32°W
Report Text: KDYB 261835Z AUTO 27009G20KT 10SM SCT038 BKN047 OVC055 12/05 A2966 RMK AO1
Loading
Personal Weather Stations






























Interactive Weather Map New forecast layout! Learn more

10-Day Weather Forecast

Advertisements
Track Severe Weather on mobile